EDDSLOWI

Guest
Details From EDDS - Stuttgart
To LOWI - Innsbruck Kranebitten
Flight Number -
Tags Generated
Created
Modified
Stats Distance 121 nm / 224 km
Max Altitude 0 ft / 0 m
Waypoints 2
Social Downloads 2
Likes 0
Share VATSIM

Download

Looking for another format? Having issues loading an existing format? Contact us
Advertisement - Login to hide

Notes

Generated

Route

EDDS LOWI

ID Type Via Altitude Latitude Longitude Leg Dist Tot Dist Heading (true) Name
O EDDS APT - 0 ft / 0 m 48.68573˚ 9.20013˚ - 0 nm - -
O LOWI APT - 0 ft / 0 m 47.25883˚ 11.33091˚ 121 nm 121 nm 134° / 136° -

Altitude Profile

Advertisement - Login to hide

EDDS

Details ICAO EDDS (STR)
Name Stuttgart
Region Germany - Civil
Timezone Europe/Berlin (UTC+1.0)
Stats Elevation 1,273 ft / 388 m (AMSL)
Location 48.689876° 9.221962°
Runways 1
Magnetic Variation 2.523° E

METAR

EDDS 140950Z 22013G23KT 190V250 9999 FEW021 05/00 Q1002 NOSIG

Decode

TAF

TAF TAF EDDS 140500Z 1406/1506 24015G25KT 9999 SCT025 PROB30 TEMPO 1411/1418 25020G35KT SHRA BKN025CB BECMG 1416/1418 20010KT TEMPO 1418/1502 24015G25KT SHRA BKN025TCU PROB30 TEMPO 1418/1502 25020G35KT 4000 TSRA BKN012 BKN020CB

Decode

Departure Runways

ID Width Length Bearing (true) Bearing (mag) Surface Threshold Offset Overrun Length
07 148 ft / 45 m 10,950 ft / 3,337 m 73.96° 71.44° Concrete 981 ft / 299 m 157 ft / 48 m
25 148 ft / 45 m 10,950 ft / 3,337 m 253.99° 251.47° Concrete 0 ft / 0 m 157 ft / 48 m

LOWI

Details ICAO LOWI (INN)
Name Innsbruck Kranebitten
Region Austria
Timezone Europe/Vienna (UTC+1.0)
Stats Elevation 1,906 ft / 581 m (AMSL)
Location 47.260226° 11.343967°
Runways 1
Magnetic Variation 3.019° E

METAR

LOWI 140950Z 27005KT 250V330 5000 -SN SCT010 BKN014 00/00 Q1006 R08/19//95 TEMPO 3000 SHSN BKN010

Decode

TAF

TAF AMD LOWI 140906Z 1409/1506 27008KT 9999 FEW080 BKN120 TX03/1412Z TN00/1409Z TEMPO 1409/1424 27015G25KT -SHSNRA FEW015 BKN060 PROB40 TEMPO 1409/1412 27015G30KT 1500 SHSN VV008 BECMG 1500/1502 7000 -SN SCT020 BKN050 TEMPO 1500/1506 27015G25KT 3000 SN BKN012

Decode

Destination Runways

ID Width Length Bearing (true) Bearing (mag) Surface Threshold Offset Overrun Length
08 148 ft / 45 m 6,545 ft / 1,995 m 81.02° 78.00° Asphalt 338 ft / 103 m 0 ft / 0 m
26 148 ft / 45 m 6,545 ft / 1,995 m 261.04° 258.02° Asphalt 0 ft / 0 m 0 ft / 0 m

Approach Navaids

Runway Type Ident Frequency Range Bearing (true) Bearing (mag) Slope Elevation
26 Localiser OEV 111.10 MHz 27 nm / 50 km 256.00° 252.98° - 1,906 ft / 581 m (AMSL)
26 Localiser OEJ 109.70 MHz 30 nm / 56 km 69.00° 65.98° - 1,906 ft / 581 m (AMSL)
26 Glidescope OEV 111.10 MHz 18 nm / 33 km 256.00° 252.98° 3.80° 1,911 ft / 582 m (AMSL)
26 DME OEJ 109.70 MHz 30 nm / 56 km - - - 1,906 ft / 581 m (AMSL)
26 DME OEV 111.10 MHz 27 nm / 50 km - - - 1,911 ft / 582 m (AMSL)

Popular Alternatives